sensor_id;sensor_type;location;lat;lon;timestamp;P1;durP1;ratioP1;P2;durP2;ratioP2
49193;SDS011;35029;50.804;12.866;2023-02-08T00:00:41;52.10;;;30.10;;
49193;SDS011;35029;50.804;12.866;2023-02-08T00:03:07;48.47;;;30.20;;
49193;SDS011;35029;50.804;12.866;2023-02-08T00:05:33;57.73;;;31.60;;
49193;SDS011;35029;50.804;12.866;2023-02-08T00:07:58;57.53;;;30.50;;
49193;SDS011;35029;50.804;12.866;2023-02-08T00:10:24;49.90;;;29.47;;
49193;SDS011;35029;50.804;12.866;2023-02-08T00:12:49;48.40;;;29.07;;
49193;SDS011;35029;50.804;12.866;2023-02-08T00:15:16;44.93;;;26.60;;
49193;SDS011;35029;50.804;12.866;2023-02-08T00:17:42;43.50;;;26.67;;
49193;SDS011;35029;50.804;12.866;2023-02-08T00:20:08;46.83;;;26.50;;
49193;SDS011;35029;50.804;12.866;2023-02-08T00:22:34;44.47;;;26.13;;
49193;SDS011;35029;50.804;12.866;2023-02-08T00:25:00;47.50;;;27.00;;
49193;SDS011;35029;50.804;12.866;2023-02-08T00:27:26;43.93;;;25.00;;
49193;SDS011;35029;50.804;12.866;2023-02-08T00:29:52;43.00;;;27.23;;
49193;SDS011;35029;50.804;12.866;2023-02-08T00:32:18;43.90;;;26.83;;
49193;SDS011;35029;50.804;12.866;2023-02-08T00:34:44;46.83;;;26.47;;
49193;SDS011;35029;50.804;12.866;2023-02-08T00:37:09;44.10;;;26.77;;
49193;SDS011;35029;50.804;12.866;2023-02-08T00:39:35;43.83;;;26.50;;
49193;SDS011;35029;50.804;12.866;2023-02-08T00:42:00;48.10;;;27.17;;
49193;SDS011;35029;50.804;12.866;2023-02-08T00:44:26;43.43;;;25.67;;
49193;SDS011;35029;50.804;12.866;2023-02-08T00:46:51;45.43;;;28.00;;
49193;SDS011;35029;50.804;12.866;2023-02-08T00:49:18;44.70;;;26.67;;
49193;SDS011;35029;50.804;12.866;2023-02-08T00:51:43;45.63;;;27.17;;
49193;SDS011;35029;50.804;12.866;2023-02-08T00:54:12;49.03;;;26.87;;
49193;SDS011;35029;50.804;12.866;2023-02-08T00:56:39;51.50;;;26.43;;
49193;SDS011;35029;50.804;12.866;2023-02-08T00:59:05;44.37;;;26.83;;
49193;SDS011;35029;50.804;12.866;2023-02-08T01:01:30;49.50;;;26.07;;
49193;SDS011;35029;50.804;12.866;2023-02-08T01:03:56;46.33;;;25.53;;
49193;SDS011;35029;50.804;12.866;2023-02-08T01:06:22;41.30;;;24.37;;
49193;SDS011;35029;50.804;12.866;2023-02-08T01:08:47;39.50;;;24.10;;
49193;SDS011;35029;50.804;12.866;2023-02-08T01:11:15;48.80;;;25.93;;
49193;SDS011;35029;50.804;12.866;2023-02-08T01:13:43;46.97;;;26.33;;
49193;SDS011;35029;50.804;12.866;2023-02-08T01:18:37;48.47;;;27.97;;
49193;SDS011;35029;50.804;12.866;2023-02-08T01:21:06;44.50;;;26.27;;
49193;SDS011;35029;50.804;12.866;2023-02-08T01:23:41;48.63;;;27.20;;
49193;SDS011;35029;50.804;12.866;2023-02-08T01:26:07;44.03;;;25.03;;
49193;SDS011;35029;50.804;12.866;2023-02-08T01:28:34;46.10;;;24.80;;
49193;SDS011;35029;50.804;12.866;2023-02-08T01:31:03;45.20;;;24.07;;
49193;SDS011;35029;50.804;12.866;2023-02-08T01:33:34;36.90;;;22.47;;
49193;SDS011;35029;50.804;12.866;2023-02-08T01:36:00;40.93;;;21.20;;
49193;SDS011;35029;50.804;12.866;2023-02-08T01:38:25;36.70;;;21.50;;
49193;SDS011;35029;50.804;12.866;2023-02-08T01:40:51;36.53;;;22.27;;
49193;SDS011;35029;50.804;12.866;2023-02-08T01:43:21;42.80;;;22.93;;
49193;SDS011;35029;50.804;12.866;2023-02-08T01:45:49;40.70;;;23.53;;
49193;SDS011;35029;50.804;12.866;2023-02-08T01:50:56;42.10;;;22.80;;
49193;SDS011;35029;50.804;12.866;2023-02-08T01:53:27;39.23;;;22.27;;
49193;SDS011;35029;50.804;12.866;2023-02-08T01:55:55;38.63;;;23.27;;
49193;SDS011;35029;50.804;12.866;2023-02-08T01:58:24;40.50;;;23.80;;
49193;SDS011;35029;50.804;12.866;2023-02-08T02:00:52;39.43;;;24.40;;
49193;SDS011;35029;50.804;12.866;2023-02-08T02:03:18;40.87;;;23.87;;
49193;SDS011;35029;50.804;12.866;2023-02-08T02:05:47;46.03;;;24.67;;
49193;SDS011;35029;50.804;12.866;2023-02-08T02:08:16;43.50;;;25.07;;
49193;SDS011;35029;50.804;12.866;2023-02-08T02:10:42;39.70;;;24.77;;
49193;SDS011;35029;50.804;12.866;2023-02-08T02:13:09;43.30;;;24.93;;
49193;SDS011;35029;50.804;12.866;2023-02-08T02:15:41;40.33;;;25.23;;
49193;SDS011;35029;50.804;12.866;2023-02-08T02:18:07;45.97;;;26.30;;
49193;SDS011;35029;50.804;12.866;2023-02-08T02:23:45;45.63;;;27.93;;
49193;SDS011;35029;50.804;12.866;2023-02-08T02:35:04;49.37;;;27.53;;
49193;SDS011;35029;50.804;12.866;2023-02-08T02:45:25;46.17;;;26.83;;
49193;SDS011;35029;50.804;12.866;2023-02-08T02:48:05;44.65;;;26.10;;
49193;SDS011;35029;50.804;12.866;2023-02-08T02:50:42;49.07;;;27.23;;
49193;SDS011;35029;50.804;12.866;2023-02-08T02:53:46;45.73;;;26.20;;
49193;SDS011;35029;50.804;12.866;2023-02-08T02:56:30;45.47;;;25.97;;
49193;SDS011;35029;50.804;12.866;2023-02-08T02:59:01;44.53;;;25.83;;
49193;SDS011;35029;50.804;12.866;2023-02-08T03:01:33;42.10;;;23.80;;
49193;SDS011;35029;50.804;12.866;2023-02-08T03:03:59;42.30;;;26.37;;
49193;SDS011;35029;50.804;12.866;2023-02-08T03:11:46;41.20;;;24.03;;
49193;SDS011;35029;50.804;12.866;2023-02-08T03:17:45;41.10;;;22.87;;
49193;SDS011;35029;50.804;12.866;2023-02-08T03:20:36;33.20;;;20.47;;
49193;SDS011;35029;50.804;12.866;2023-02-08T03:25:50;39.47;;;21.50;;
49193;SDS011;35029;50.804;12.866;2023-02-08T03:31:12;41.00;;;20.90;;
49193;SDS011;35029;50.804;12.866;2023-02-08T03:33:50;35.47;;;20.43;;
49193;SDS011;35029;50.804;12.866;2023-02-08T03:36:35;37.80;;;20.77;;
49193;SDS011;35029;50.804;12.866;2023-02-08T03:39:07;38.40;;;21.40;;
49193;SDS011;35029;50.804;12.866;2023-02-08T03:41:37;35.22;;;19.92;;
49193;SDS011;35029;50.804;12.866;2023-02-08T03:44:50;37.37;;;19.27;;
49193;SDS011;35029;50.804;12.866;2023-02-08T03:47:01;33.30;;;18.13;;
49193;SDS011;35029;50.804;12.866;2023-02-08T03:49:34;33.40;;;18.70;;
49193;SDS011;35029;50.804;12.866;2023-02-08T03:52:02;29.87;;;16.93;;
49193;SDS011;35029;50.804;12.866;2023-02-08T03:54:33;28.67;;;16.63;;
49193;SDS011;35029;50.804;12.866;2023-02-08T03:57:12;26.03;;;16.60;;
49193;SDS011;35029;50.804;12.866;2023-02-08T03:59:46;34.43;;;18.47;;
49193;SDS011;35029;50.804;12.866;2023-02-08T04:02:38;29.93;;;17.57;;
49193;SDS011;35029;50.804;12.866;2023-02-08T04:05:10;29.13;;;17.50;;
49193;SDS011;35029;50.804;12.866;2023-02-08T04:07:37;38.23;;;19.33;;
49193;SDS011;35029;50.804;12.866;2023-02-08T04:10:02;34.80;;;19.03;;
49193;SDS011;35029;50.804;12.866;2023-02-08T04:12:28;35.63;;;19.40;;
49193;SDS011;35029;50.804;12.866;2023-02-08T04:14:53;30.20;;;17.77;;
49193;SDS011;35029;50.804;12.866;2023-02-08T04:17:19;32.43;;;19.00;;
49193;SDS011;35029;50.804;12.866;2023-02-08T04:19:45;34.90;;;17.87;;
49193;SDS011;35029;50.804;12.866;2023-02-08T04:22:10;36.37;;;19.07;;
49193;SDS011;35029;50.804;12.866;2023-02-08T04:24:36;32.37;;;17.60;;
49193;SDS011;35029;50.804;12.866;2023-02-08T04:27:01;31.33;;;16.47;;
49193;SDS011;35029;50.804;12.866;2023-02-08T04:29:27;26.30;;;16.00;;
49193;SDS011;35029;50.804;12.866;2023-02-08T04:31:52;28.80;;;16.47;;
49193;SDS011;35029;50.804;12.866;2023-02-08T04:34:18;26.63;;;15.40;;
49193;SDS011;35029;50.804;12.866;2023-02-08T04:36:44;27.13;;;16.13;;
49193;SDS011;35029;50.804;12.866;2023-02-08T04:39:10;27.57;;;16.00;;
49193;SDS011;35029;50.804;12.866;2023-02-08T04:41:35;28.30;;;15.77;;
49193;SDS011;35029;50.804;12.866;2023-02-08T04:44:01;31.00;;;18.00;;
49193;SDS011;35029;50.804;12.866;2023-02-08T04:46:26;27.87;;;16.60;;
49193;SDS011;35029;50.804;12.866;2023-02-08T04:48:52;37.30;;;19.53;;
49193;SDS011;35029;50.804;12.866;2023-02-08T04:51:17;39.37;;;20.60;;
49193;SDS011;35029;50.804;12.866;2023-02-08T04:53:43;37.23;;;19.20;;
49193;SDS011;35029;50.804;12.866;2023-02-08T04:56:09;34.00;;;18.57;;
49193;SDS011;35029;50.804;12.866;2023-02-08T04:58:35;32.73;;;18.23;;
49193;SDS011;35029;50.804;12.866;2023-02-08T05:01:04;36.30;;;19.27;;
49193;SDS011;35029;50.804;12.866;2023-02-08T05:03:30;33.13;;;17.87;;
49193;SDS011;35029;50.804;12.866;2023-02-08T05:05:57;34.07;;;19.33;;
49193;SDS011;35029;50.804;12.866;2023-02-08T05:08:24;29.40;;;17.63;;
49193;SDS011;35029;50.804;12.866;2023-02-08T05:10:50;41.50;;;19.70;;
49193;SDS011;35029;50.804;12.866;2023-02-08T05:13:16;34.27;;;19.33;;
49193;SDS011;35029;50.804;12.866;2023-02-08T05:15:42;35.90;;;18.70;;
49193;SDS011;35029;50.804;12.866;2023-02-08T05:18:08;38.17;;;18.30;;
49193;SDS011;35029;50.804;12.866;2023-02-08T05:20:34;30.10;;;17.40;;
49193;SDS011;35029;50.804;12.866;2023-02-08T05:23:00;33.73;;;18.83;;
49193;SDS011;35029;50.804;12.866;2023-02-08T05:25:25;31.90;;;17.80;;
49193;SDS011;35029;50.804;12.866;2023-02-08T05:27:51;38.10;;;19.67;;
49193;SDS011;35029;50.804;12.866;2023-02-08T05:30:16;32.20;;;18.57;;
49193;SDS011;35029;50.804;12.866;2023-02-08T05:32:42;33.33;;;18.30;;
49193;SDS011;35029;50.804;12.866;2023-02-08T05:35:08;31.33;;;18.43;;
49193;SDS011;35029;50.804;12.866;2023-02-08T05:37:33;33.50;;;18.93;;
49193;SDS011;35029;50.804;12.866;2023-02-08T05:39:59;35.07;;;19.57;;
49193;SDS011;35029;50.804;12.866;2023-02-08T05:42:25;37.97;;;20.10;;
49193;SDS011;35029;50.804;12.866;2023-02-08T05:44:51;37.37;;;18.60;;
49193;SDS011;35029;50.804;12.866;2023-02-08T05:47:16;35.87;;;18.70;;
49193;SDS011;35029;50.804;12.866;2023-02-08T05:49:42;35.80;;;19.13;;
49193;SDS011;35029;50.804;12.866;2023-02-08T05:52:08;39.70;;;20.13;;
49193;SDS011;35029;50.804;12.866;2023-02-08T05:54:33;35.00;;;19.03;;
49193;SDS011;35029;50.804;12.866;2023-02-08T05:56:59;28.67;;;18.70;;
49193;SDS011;35029;50.804;12.866;2023-02-08T05:59:24;34.20;;;18.33;;
49193;SDS011;35029;50.804;12.866;2023-02-08T06:01:50;36.73;;;19.10;;
49193;SDS011;35029;50.804;12.866;2023-02-08T06:04:15;33.57;;;19.87;;
49193;SDS011;35029;50.804;12.866;2023-02-08T06:06:41;34.43;;;18.50;;
49193;SDS011;35029;50.804;12.866;2023-02-08T06:09:06;34.10;;;17.63;;
49193;SDS011;35029;50.804;12.866;2023-02-08T06:11:32;28.27;;;17.67;;
49193;SDS011;35029;50.804;12.866;2023-02-08T06:14:00;33.33;;;18.63;;
49193;SDS011;35029;50.804;12.866;2023-02-08T06:16:27;37.37;;;19.97;;
49193;SDS011;35029;50.804;12.866;2023-02-08T06:18:52;34.47;;;18.50;;
49193;SDS011;35029;50.804;12.866;2023-02-08T06:21:18;31.13;;;18.20;;
49193;SDS011;35029;50.804;12.866;2023-02-08T06:23:43;40.33;;;20.73;;
49193;SDS011;35029;50.804;12.866;2023-02-08T06:26:09;37.30;;;19.67;;
49193;SDS011;35029;50.804;12.866;2023-02-08T06:28:34;37.13;;;20.07;;
49193;SDS011;35029;50.804;12.866;2023-02-08T06:31:00;36.00;;;19.60;;
49193;SDS011;35029;50.804;12.866;2023-02-08T06:33:25;39.07;;;21.30;;
49193;SDS011;35029;50.804;12.866;2023-02-08T06:35:51;41.00;;;22.63;;
49193;SDS011;35029;50.804;12.866;2023-02-08T06:38:17;39.60;;;19.93;;
49193;SDS011;35029;50.804;12.866;2023-02-08T06:40:45;44.17;;;21.77;;
49193;SDS011;35029;50.804;12.866;2023-02-08T06:43:11;42.20;;;20.27;;
49193;SDS011;35029;50.804;12.866;2023-02-08T06:45:36;38.60;;;20.73;;
49193;SDS011;35029;50.804;12.866;2023-02-08T06:48:02;35.13;;;19.90;;
49193;SDS011;35029;50.804;12.866;2023-02-08T06:50:28;37.97;;;19.67;;
49193;SDS011;35029;50.804;12.866;2023-02-08T06:52:53;39.20;;;20.23;;
49193;SDS011;35029;50.804;12.866;2023-02-08T06:55:19;40.07;;;20.30;;
49193;SDS011;35029;50.804;12.866;2023-02-08T06:57:44;39.17;;;21.70;;
49193;SDS011;35029;50.804;12.866;2023-02-08T07:00:10;36.57;;;20.10;;
49193;SDS011;35029;50.804;12.866;2023-02-08T07:02:36;39.23;;;20.73;;
49193;SDS011;35029;50.804;12.866;2023-02-08T07:05:01;41.23;;;21.63;;
49193;SDS011;35029;50.804;12.866;2023-02-08T07:07:27;35.97;;;20.23;;
49193;SDS011;35029;50.804;12.866;2023-02-08T07:09:53;39.97;;;20.33;;
49193;SDS011;35029;50.804;12.866;2023-02-08T07:12:18;40.53;;;21.17;;
49193;SDS011;35029;50.804;12.866;2023-02-08T07:14:44;37.57;;;20.97;;
49193;SDS011;35029;50.804;12.866;2023-02-08T07:17:10;39.97;;;20.47;;
49193;SDS011;35029;50.804;12.866;2023-02-08T07:19:36;39.80;;;21.83;;
49193;SDS011;35029;50.804;12.866;2023-02-08T07:22:02;39.00;;;20.60;;
49193;SDS011;35029;50.804;12.866;2023-02-08T07:24:38;53.77;;;23.10;;
49193;SDS011;35029;50.804;12.866;2023-02-08T07:27:05;44.87;;;23.17;;
49193;SDS011;35029;50.804;12.866;2023-02-08T07:29:32;39.43;;;21.40;;
49193;SDS011;35029;50.804;12.866;2023-02-08T07:31:59;39.70;;;21.13;;
49193;SDS011;35029;50.804;12.866;2023-02-08T07:34:27;38.90;;;19.83;;
49193;SDS011;35029;50.804;12.866;2023-02-08T07:36:54;40.57;;;21.57;;
49193;SDS011;35029;50.804;12.866;2023-02-08T07:39:19;40.57;;;21.97;;
49193;SDS011;35029;50.804;12.866;2023-02-08T07:41:45;39.00;;;21.77;;
49193;SDS011;35029;50.804;12.866;2023-02-08T07:44:12;44.27;;;23.80;;
49193;SDS011;35029;50.804;12.866;2023-02-08T07:46:38;39.83;;;20.60;;
49193;SDS011;35029;50.804;12.866;2023-02-08T07:49:04;35.50;;;20.67;;
49193;SDS011;35029;50.804;12.866;2023-02-08T07:51:30;37.83;;;21.83;;
49193;SDS011;35029;50.804;12.866;2023-02-08T07:53:55;41.03;;;22.30;;
49193;SDS011;35029;50.804;12.866;2023-02-08T07:56:21;41.03;;;22.27;;
49193;SDS011;35029;50.804;12.866;2023-02-08T07:58:46;40.70;;;22.43;;
49193;SDS011;35029;50.804;12.866;2023-02-08T08:01:12;45.27;;;22.47;;
49193;SDS011;35029;50.804;12.866;2023-02-08T08:03:37;39.07;;;23.20;;
49193;SDS011;35029;50.804;12.866;2023-02-08T08:06:03;38.60;;;21.83;;
49193;SDS011;35029;50.804;12.866;2023-02-08T08:08:29;44.13;;;22.90;;
49193;SDS011;35029;50.804;12.866;2023-02-08T08:10:54;35.70;;;21.47;;
49193;SDS011;35029;50.804;12.866;2023-02-08T08:13:21;36.23;;;22.43;;
49193;SDS011;35029;50.804;12.866;2023-02-08T08:15:47;40.53;;;22.67;;
49193;SDS011;35029;50.804;12.866;2023-02-08T08:18:13;46.40;;;23.97;;
49193;SDS011;35029;50.804;12.866;2023-02-08T08:20:38;41.40;;;23.33;;
49193;SDS011;35029;50.804;12.866;2023-02-08T08:23:04;40.73;;;23.43;;
49193;SDS011;35029;50.804;12.866;2023-02-08T08:25:29;42.27;;;24.13;;
49193;SDS011;35029;50.804;12.866;2023-02-08T08:27:55;41.50;;;23.97;;
49193;SDS011;35029;50.804;12.866;2023-02-08T08:30:21;46.43;;;26.83;;
49193;SDS011;35029;50.804;12.866;2023-02-08T08:32:47;45.27;;;25.70;;
49193;SDS011;35029;50.804;12.866;2023-02-08T08:35:12;40.77;;;24.43;;
49193;SDS011;35029;50.804;12.866;2023-02-08T08:37:38;48.43;;;26.70;;
49193;SDS011;35029;50.804;12.866;2023-02-08T08:40:04;45.83;;;24.53;;
49193;SDS011;35029;50.804;12.866;2023-02-08T08:42:31;44.70;;;25.07;;
49193;SDS011;35029;50.804;12.866;2023-02-08T08:44:58;44.13;;;25.00;;
49193;SDS011;35029;50.804;12.866;2023-02-08T08:47:24;42.57;;;26.03;;
49193;SDS011;35029;50.804;12.866;2023-02-08T08:49:49;44.33;;;24.83;;
49193;SDS011;35029;50.804;12.866;2023-02-08T08:52:15;53.30;;;29.37;;
49193;SDS011;35029;50.804;12.866;2023-02-08T08:54:40;52.73;;;28.50;;
49193;SDS011;35029;50.804;12.866;2023-02-08T08:57:06;49.33;;;28.30;;
49193;SDS011;35029;50.804;12.866;2023-02-08T08:59:31;53.27;;;29.97;;
49193;SDS011;35029;50.804;12.866;2023-02-08T09:01:57;49.57;;;30.13;;
49193;SDS011;35029;50.804;12.866;2023-02-08T09:04:23;51.10;;;29.57;;
49193;SDS011;35029;50.804;12.866;2023-02-08T09:06:49;59.17;;;32.47;;
49193;SDS011;35029;50.804;12.866;2023-02-08T09:09:16;56.07;;;31.50;;
49193;SDS011;35029;50.804;12.866;2023-02-08T09:11:41;61.17;;;32.10;;
49193;SDS011;35029;50.804;12.866;2023-02-08T09:14:07;56.83;;;32.87;;
49193;SDS011;35029;50.804;12.866;2023-02-08T09:16:33;54.97;;;31.70;;
49193;SDS011;35029;50.804;12.866;2023-02-08T09:19:00;52.40;;;29.13;;
49193;SDS011;35029;50.804;12.866;2023-02-08T09:21:26;42.57;;;25.23;;
49193;SDS011;35029;50.804;12.866;2023-02-08T09:23:52;42.10;;;23.97;;
49193;SDS011;35029;50.804;12.866;2023-02-08T09:26:18;41.10;;;24.13;;
49193;SDS011;35029;50.804;12.866;2023-02-08T09:28:44;39.53;;;22.63;;
49193;SDS011;35029;50.804;12.866;2023-02-08T09:33:49;39.70;;;22.73;;
49193;SDS011;35029;50.804;12.866;2023-02-08T09:36:16;41.70;;;23.47;;
49193;SDS011;35029;50.804;12.866;2023-02-08T09:38:43;41.47;;;24.87;;
49193;SDS011;35029;50.804;12.866;2023-02-08T09:44:09;39.00;;;22.83;;
49193;SDS011;35029;50.804;12.866;2023-02-08T09:46:56;36.77;;;22.93;;
49193;SDS011;35029;50.804;12.866;2023-02-08T09:49:27;37.72;;;22.67;;
49193;SDS011;35029;50.804;12.866;2023-02-08T09:54:31;38.57;;;21.93;;
49193;SDS011;35029;50.804;12.866;2023-02-08T09:57:00;37.33;;;22.50;;
49193;SDS011;35029;50.804;12.866;2023-02-08T09:59:31;40.60;;;22.63;;
49193;SDS011;35029;50.804;12.866;2023-02-08T10:05:19;37.87;;;22.67;;
49193;SDS011;35029;50.804;12.866;2023-02-08T10:07:39;39.13;;;22.60;;
49193;SDS011;35029;50.804;12.866;2023-02-08T10:10:11;39.93;;;23.80;;
49193;SDS011;35029;50.804;12.866;2023-02-08T10:15:45;36.33;;;20.50;;
49193;SDS011;35029;50.804;12.866;2023-02-08T10:26:31;40.63;;;22.20;;
49193;SDS011;35029;50.804;12.866;2023-02-08T10:34:21;37.13;;;22.33;;
49193;SDS011;35029;50.804;12.866;2023-02-08T10:36:54;36.40;;;22.23;;
49193;SDS011;35029;50.804;12.866;2023-02-08T10:39:23;38.72;;;22.15;;
49193;SDS011;35029;50.804;12.866;2023-02-08T10:41:53;35.40;;;22.07;;
49193;SDS011;35029;50.804;12.866;2023-02-08T10:47:16;41.40;;;23.03;;
49193;SDS011;35029;50.804;12.866;2023-02-08T10:50:33;35.00;;;21.38;;
49193;SDS011;35029;50.804;12.866;2023-02-08T10:53:15;34.58;;;21.67;;
49193;SDS011;35029;50.804;12.866;2023-02-08T10:55:42;40.38;;;24.02;;
49193;SDS011;35029;50.804;12.866;2023-02-08T10:58:12;41.97;;;23.55;;
49193;SDS011;35029;50.804;12.866;2023-02-08T11:00:41;47.05;;;27.02;;
49193;SDS011;35029;50.804;12.866;2023-02-08T11:03:22;46.90;;;27.33;;
49193;SDS011;35029;50.804;12.866;2023-02-08T11:05:51;45.63;;;26.63;;
49193;SDS011;35029;50.804;12.866;2023-02-08T11:08:19;45.85;;;27.60;;
49193;SDS011;35029;50.804;12.866;2023-02-08T11:13:42;46.05;;;28.00;;
49193;SDS011;35029;50.804;12.866;2023-02-08T11:16:23;46.63;;;28.90;;
49193;SDS011;35029;50.804;12.866;2023-02-08T11:18:59;47.25;;;27.98;;
49193;SDS011;35029;50.804;12.866;2023-02-08T11:26:33;52.45;;;30.27;;
49193;SDS011;35029;50.804;12.866;2023-02-08T11:34:23;48.92;;;29.13;;
49193;SDS011;35029;50.804;12.866;2023-02-08T11:36:50;47.92;;;29.05;;
49193;SDS011;35029;50.804;12.866;2023-02-08T11:41:59;45.25;;;28.05;;
49193;SDS011;35029;50.804;12.866;2023-02-08T11:44:36;45.17;;;26.80;;
49193;SDS011;35029;50.804;12.866;2023-02-08T11:47:07;46.67;;;27.90;;
49193;SDS011;35029;50.804;12.866;2023-02-08T11:49:36;47.58;;;27.98;;
49193;SDS011;35029;50.804;12.866;2023-02-08T11:52:17;41.38;;;26.52;;
49193;SDS011;35029;50.804;12.866;2023-02-08T11:54:46;47.75;;;28.45;;
49193;SDS011;35029;50.804;12.866;2023-02-08T11:59:43;44.53;;;25.92;;
49193;SDS011;35029;50.804;12.866;2023-02-08T12:05:00;41.10;;;25.77;;
49193;SDS011;35029;50.804;12.866;2023-02-08T12:21:20;36.20;;;22.35;;
49193;SDS011;35029;50.804;12.866;2023-02-08T12:29:19;32.88;;;20.45;;
49193;SDS011;35029;50.804;12.866;2023-02-08T12:40:15;34.20;;;19.70;;
49193;SDS011;35029;50.804;12.866;2023-02-08T12:48:52;29.55;;;18.48;;
49193;SDS011;35029;50.804;12.866;2023-02-08T12:54:14;30.40;;;18.77;;
49193;SDS011;35029;50.804;12.866;2023-02-08T12:56:48;34.50;;;18.45;;
49193;SDS011;35029;50.804;12.866;2023-02-08T12:59:18;29.33;;;17.48;;
49193;SDS011;35029;50.804;12.866;2023-02-08T13:01:49;32.05;;;18.05;;
49193;SDS011;35029;50.804;12.866;2023-02-08T13:04:22;33.03;;;19.02;;
49193;SDS011;35029;50.804;12.866;2023-02-08T13:06:56;30.42;;;17.90;;
49193;SDS011;35029;50.804;12.866;2023-02-08T13:11:58;32.47;;;18.10;;
49193;SDS011;35029;50.804;12.866;2023-02-08T13:19:48;32.45;;;19.63;;
49193;SDS011;35029;50.804;12.866;2023-02-08T13:22:18;32.03;;;19.40;;
49193;SDS011;35029;50.804;12.866;2023-02-08T13:24:45;33.78;;;19.80;;
49193;SDS011;35029;50.804;12.866;2023-02-08T13:27:16;31.55;;;18.20;;
49193;SDS011;35029;50.804;12.866;2023-02-08T13:29:44;38.67;;;20.67;;
49193;SDS011;35029;50.804;12.866;2023-02-08T13:32:28;32.65;;;19.17;;
49193;SDS011;35029;50.804;12.866;2023-02-08T13:35:02;37.10;;;19.23;;
49193;SDS011;35029;50.804;12.866;2023-02-08T13:37:37;32.25;;;18.90;;
49193;SDS011;35029;50.804;12.866;2023-02-08T13:40:06;32.28;;;19.80;;
49193;SDS011;35029;50.804;12.866;2023-02-08T13:42:51;32.72;;;18.38;;
49193;SDS011;35029;50.804;12.866;2023-02-08T13:45:44;34.00;;;19.80;;
49193;SDS011;35029;50.804;12.866;2023-02-08T13:48:17;34.97;;;20.38;;
49193;SDS011;35029;50.804;12.866;2023-02-08T13:50:53;35.22;;;21.50;;
49193;SDS011;35029;50.804;12.866;2023-02-08T13:56:36;31.55;;;18.92;;
49193;SDS011;35029;50.804;12.866;2023-02-08T14:04:46;37.00;;;21.27;;
49193;SDS011;35029;50.804;12.866;2023-02-08T14:10:30;33.53;;;20.10;;
49193;SDS011;35029;50.804;12.866;2023-02-08T14:15:45;34.08;;;20.23;;
49193;SDS011;35029;50.804;12.866;2023-02-08T14:18:24;34.92;;;20.23;;
49193;SDS011;35029;50.804;12.866;2023-02-08T14:21:02;36.67;;;20.77;;
49193;SDS011;35029;50.804;12.866;2023-02-08T14:23:31;40.25;;;23.45;;
49193;SDS011;35029;50.804;12.866;2023-02-08T14:26:07;40.17;;;22.77;;
49193;SDS011;35029;50.804;12.866;2023-02-08T14:28:43;43.63;;;22.45;;
49193;SDS011;35029;50.804;12.866;2023-02-08T14:31:10;36.17;;;21.45;;
49193;SDS011;35029;50.804;12.866;2023-02-08T14:33:53;33.95;;;21.10;;
49193;SDS011;35029;50.804;12.866;2023-02-08T14:36:30;38.85;;;22.30;;
49193;SDS011;35029;50.804;12.866;2023-02-08T14:39:06;40.67;;;22.48;;
49193;SDS011;35029;50.804;12.866;2023-02-08T14:47:02;38.17;;;23.35;;
49193;SDS011;35029;50.804;12.866;2023-02-08T14:49:46;36.25;;;21.20;;
49193;SDS011;35029;50.804;12.866;2023-02-08T14:52:19;37.25;;;22.23;;
49193;SDS011;35029;50.804;12.866;2023-02-08T14:54:52;41.70;;;23.45;;
49193;SDS011;35029;50.804;12.866;2023-02-08T14:57:23;39.25;;;22.17;;
49193;SDS011;35029;50.804;12.866;2023-02-08T15:02:20;36.85;;;21.17;;
49193;SDS011;35029;50.804;12.866;2023-02-08T15:04:50;39.88;;;21.77;;
49193;SDS011;35029;50.804;12.866;2023-02-08T15:09:50;37.95;;;22.45;;
49193;SDS011;35029;50.804;12.866;2023-02-08T15:12:20;39.38;;;22.05;;
49193;SDS011;35029;50.804;12.866;2023-02-08T15:15:00;38.15;;;21.65;;
49193;SDS011;35029;50.804;12.866;2023-02-08T15:17:32;42.13;;;23.35;;
49193;SDS011;35029;50.804;12.866;2023-02-08T15:20:02;34.47;;;21.77;;
49193;SDS011;35029;50.804;12.866;2023-02-08T15:22:32;38.92;;;22.70;;
49193;SDS011;35029;50.804;12.866;2023-02-08T15:25:02;38.63;;;21.58;;
49193;SDS011;35029;50.804;12.866;2023-02-08T15:27:45;40.00;;;23.42;;
49193;SDS011;35029;50.804;12.866;2023-02-08T15:32:53;38.83;;;22.87;;
49193;SDS011;35029;50.804;12.866;2023-02-08T15:35:20;42.13;;;23.57;;
49193;SDS011;35029;50.804;12.866;2023-02-08T15:37:48;40.13;;;23.13;;
49193;SDS011;35029;50.804;12.866;2023-02-08T15:40:22;40.50;;;23.87;;
49193;SDS011;35029;50.804;12.866;2023-02-08T15:42:50;38.53;;;23.20;;
49193;SDS011;35029;50.804;12.866;2023-02-08T15:45:22;37.27;;;23.60;;
49193;SDS011;35029;50.804;12.866;2023-02-08T15:47:49;40.87;;;23.90;;
49193;SDS011;35029;50.804;12.866;2023-02-08T15:50:17;42.92;;;24.15;;
49193;SDS011;35029;50.804;12.866;2023-02-08T15:52:45;39.57;;;24.73;;
49193;SDS011;35029;50.804;12.866;2023-02-08T15:55:17;40.97;;;24.40;;
49193;SDS011;35029;50.804;12.866;2023-02-08T16:00:19;40.53;;;24.07;;
49193;SDS011;35029;50.804;12.866;2023-02-08T16:02:56;42.00;;;24.90;;
49193;SDS011;35029;50.804;12.866;2023-02-08T16:05:27;47.97;;;26.37;;
49193;SDS011;35029;50.804;12.866;2023-02-08T16:07:55;42.90;;;24.73;;
49193;SDS011;35029;50.804;12.866;2023-02-08T16:10:28;42.87;;;24.53;;
49193;SDS011;35029;50.804;12.866;2023-02-08T16:12:59;41.60;;;24.70;;
49193;SDS011;35029;50.804;12.866;2023-02-08T16:15:43;44.43;;;26.37;;
49193;SDS011;35029;50.804;12.866;2023-02-08T16:20:58;41.73;;;24.30;;
49193;SDS011;35029;50.804;12.866;2023-02-08T16:23:29;41.93;;;23.03;;
49193;SDS011;35029;50.804;12.866;2023-02-08T16:29:06;47.13;;;26.70;;
49193;SDS011;35029;50.804;12.866;2023-02-08T16:31:41;44.17;;;25.87;;
49193;SDS011;35029;50.804;12.866;2023-02-08T16:34:18;48.17;;;26.87;;
49193;SDS011;35029;50.804;12.866;2023-02-08T16:36:50;49.47;;;26.90;;
49193;SDS011;35029;50.804;12.866;2023-02-08T16:44:24;49.87;;;27.27;;
49193;SDS011;35029;50.804;12.866;2023-02-08T16:46:55;45.67;;;25.77;;
49193;SDS011;35029;50.804;12.866;2023-02-08T16:49:21;46.00;;;27.50;;
49193;SDS011;35029;50.804;12.866;2023-02-08T16:51:47;54.20;;;28.37;;
49193;SDS011;35029;50.804;12.866;2023-02-08T16:54:16;47.57;;;27.60;;
49193;SDS011;35029;50.804;12.866;2023-02-08T16:56:45;50.53;;;29.47;;
49193;SDS011;35029;50.804;12.866;2023-02-08T16:59:14;51.37;;;30.53;;
49193;SDS011;35029;50.804;12.866;2023-02-08T17:01:41;53.80;;;31.37;;
49193;SDS011;35029;50.804;12.866;2023-02-08T17:04:12;57.00;;;30.80;;
49193;SDS011;35029;50.804;12.866;2023-02-08T17:06:39;55.00;;;31.43;;
49193;SDS011;35029;50.804;12.866;2023-02-08T17:09:06;54.70;;;31.77;;
49193;SDS011;35029;50.804;12.866;2023-02-08T17:11:33;60.13;;;32.73;;
49193;SDS011;35029;50.804;12.866;2023-02-08T17:14:00;52.73;;;30.87;;
49193;SDS011;35029;50.804;12.866;2023-02-08T17:16:27;51.20;;;30.87;;